createdAt,value
2023-05-21T00:01:37.245Z,16.60
2023-05-21T00:04:06.339Z,16.61
2023-05-21T00:06:35.944Z,16.71
2023-05-21T00:09:04.907Z,16.62
2023-05-21T00:11:33.839Z,16.57
2023-05-21T00:14:02.280Z,16.56
2023-05-21T00:16:30.826Z,16.46
2023-05-21T00:19:02.421Z,16.54
2023-05-21T00:21:31.868Z,16.55
2023-05-21T00:24:00.211Z,16.44
2023-05-21T00:26:28.601Z,16.50
2023-05-21T00:28:57.138Z,16.55
2023-05-21T00:31:25.636Z,16.52
2023-05-21T00:33:53.973Z,16.50
2023-05-21T00:36:25.308Z,16.47
2023-05-21T00:38:53.947Z,16.45
2023-05-21T00:41:23.225Z,16.34
2023-05-21T00:43:53.212Z,16.36
2023-05-21T00:46:22.952Z,16.28
2023-05-21T00:48:52.507Z,16.33
2023-05-21T00:51:21.996Z,16.30
2023-05-21T00:53:53.867Z,16.20
2023-05-21T00:56:22.791Z,16.16
2023-05-21T00:58:52.331Z,16.19
2023-05-21T01:01:20.686Z,16.11
2023-05-21T01:03:49.321Z,16.05
2023-05-21T01:06:17.693Z,16.00
2023-05-21T01:08:46.752Z,16.00
2023-05-21T01:11:16.505Z,15.89
2023-05-21T01:13:45.969Z,15.84
2023-05-21T01:16:14.925Z,15.81
2023-05-21T01:18:43.785Z,15.88
2023-05-21T01:21:12.399Z,15.83
2023-05-21T01:23:42.188Z,15.81
2023-05-21T01:26:13.083Z,15.80
2023-05-21T01:28:42.351Z,15.77
2023-05-21T01:31:24.426Z,15.79
2023-05-21T01:33:54.247Z,15.76
2023-05-21T01:36:26.926Z,15.74
2023-05-21T01:39:02.207Z,15.79
2023-05-21T01:41:34.666Z,15.73
2023-05-21T01:44:04.990Z,15.68
2023-05-21T01:46:36.282Z,15.71
2023-05-21T01:49:06.467Z,15.69
2023-05-21T01:51:35.523Z,15.74
2023-05-21T01:54:05.451Z,15.68
2023-05-21T01:56:34.025Z,15.60
2023-05-21T01:59:02.446Z,15.52
2023-05-21T02:01:31.253Z,15.51
2023-05-21T02:03:59.778Z,15.54
2023-05-21T02:06:28.339Z,15.57
2023-05-21T02:08:56.820Z,15.57
2023-05-21T02:11:27.002Z,15.55
2023-05-21T02:13:57.489Z,15.61
2023-05-21T02:16:27.122Z,15.53
2023-05-21T02:18:57.617Z,15.60
2023-05-21T02:21:26.100Z,15.56
2023-05-21T02:23:54.650Z,15.57
2023-05-21T02:26:23.275Z,15.61
2023-05-21T02:28:52.986Z,15.58
2023-05-21T02:31:21.511Z,15.59
2023-05-21T02:33:49.883Z,15.56
2023-05-21T02:36:19.017Z,15.44
2023-05-21T02:38:47.902Z,15.42
2023-05-21T02:41:16.328Z,15.50
2023-05-21T02:43:44.586Z,15.47
2023-05-21T02:46:14.516Z,15.52
2023-05-21T02:48:43.104Z,15.48
2023-05-21T02:51:11.643Z,15.51
2023-05-21T02:53:40.756Z,15.51
2023-05-21T02:56:09.269Z,15.60
2023-05-21T02:58:37.805Z,15.64
2023-05-21T03:01:06.267Z,15.71
2023-05-21T03:03:36.159Z,15.79
2023-05-21T03:06:05.133Z,16.02
2023-05-21T03:08:33.490Z,16.18
2023-05-21T03:11:01.825Z,16.33
2023-05-21T03:13:30.323Z,16.48
2023-05-21T03:15:58.838Z,16.49
2023-05-21T03:18:27.165Z,16.45
2023-05-21T03:20:58.923Z,16.32
2023-05-21T03:23:28.214Z,16.42
2023-05-21T03:25:56.733Z,16.35
2023-05-21T03:28:25.010Z,16.52
2023-05-21T03:30:53.697Z,16.94
2023-05-21T03:33:22.215Z,17.07
2023-05-21T03:35:50.907Z,17.40
2023-05-21T03:38:20.634Z,17.78
2023-05-21T03:40:49.059Z,17.81
2023-05-21T03:43:17.459Z,18.26
2023-05-21T03:45:45.818Z,18.36
2023-05-21T03:48:14.316Z,18.81
2023-05-21T03:50:43.486Z,18.53
2023-05-21T03:53:12.623Z,19.01
2023-05-21T03:55:42.682Z,19.04
2023-05-21T03:58:11.139Z,19.24
2023-05-21T04:00:39.629Z,19.49
2023-05-21T04:03:08.134Z,19.37
2023-05-21T04:05:36.718Z,19.76
2023-05-21T04:08:05.355Z,19.58
2023-05-21T04:10:33.877Z,19.34
2023-05-21T04:13:03.728Z,18.91
2023-05-21T04:15:32.647Z,18.80
2023-05-21T04:18:01.038Z,18.91
2023-05-21T04:20:29.654Z,18.67
2023-05-21T04:22:58.104Z,18.31
2023-05-21T04:25:26.578Z,18.64
2023-05-21T04:27:54.896Z,19.17
2023-05-21T04:30:25.285Z,19.51
2023-05-21T04:32:55.042Z,19.69
2023-05-21T04:35:23.622Z,20.57
2023-05-21T04:37:52.216Z,20.97
2023-05-21T04:40:24.445Z,21.48
2023-05-21T04:42:52.781Z,21.68
2023-05-21T04:45:21.296Z,22.09
2023-05-21T04:47:52.444Z,21.83
2023-05-21T04:50:20.765Z,21.56
2023-05-21T04:52:49.156Z,21.79
2023-05-21T04:55:19.212Z,22.13
2023-05-21T04:57:47.564Z,22.11
2023-05-21T05:00:16.584Z,22.52
2023-05-21T05:02:45.524Z,21.74
2023-05-21T05:05:15.440Z,21.75
2023-05-21T05:07:44.027Z,20.87
2023-05-21T05:10:12.537Z,21.49
2023-05-21T05:12:40.837Z,21.45
2023-05-21T05:15:10.396Z,22.01
2023-05-21T05:17:39.884Z,21.64
2023-05-21T05:20:10.086Z,21.18
2023-05-21T05:22:40.017Z,21.23
2023-05-21T05:25:08.821Z,20.89
2023-05-21T05:27:38.472Z,21.06
2023-05-21T05:30:08.552Z,21.28
2023-05-21T05:32:37.098Z,21.39
2023-05-21T05:35:06.150Z,21.42
2023-05-21T05:37:34.870Z,21.53
2023-05-21T05:40:05.944Z,21.56
2023-05-21T05:42:34.249Z,21.32
2023-05-21T05:45:02.581Z,21.36
2023-05-21T05:47:31.555Z,21.02
2023-05-21T05:49:59.848Z,20.67
2023-05-21T05:52:28.159Z,21.19
2023-05-21T05:54:56.654Z,21.48
2023-05-21T05:57:26.525Z,21.58
2023-05-21T05:59:54.778Z,21.52
2023-05-21T06:02:23.153Z,21.71
2023-05-21T06:04:52.014Z,21.96
2023-05-21T06:07:20.343Z,22.74
2023-05-21T06:09:48.693Z,24.61
2023-05-21T06:12:17.164Z,25.25
2023-05-21T06:14:49.100Z,25.94
2023-05-21T06:17:17.391Z,25.44
2023-05-21T06:19:46.182Z,24.94
2023-05-21T06:22:14.472Z,25.10
2023-05-21T06:24:42.783Z,24.27
2023-05-21T06:27:11.107Z,23.07
2023-05-21T06:29:40.919Z,22.85
2023-05-21T06:32:11.005Z,22.00
2023-05-21T06:34:39.408Z,21.96
2023-05-21T06:37:07.733Z,21.72
2023-05-21T06:39:36.075Z,22.12
2023-05-21T06:42:04.530Z,21.92
2023-05-21T06:44:32.845Z,22.37
2023-05-21T06:47:01.571Z,23.05
2023-05-21T06:49:31.325Z,22.70
2023-05-21T06:52:01.716Z,22.60
2023-05-21T06:54:29.958Z,23.20
2023-05-21T06:56:58.239Z,23.18
2023-05-21T06:59:26.708Z,22.87
2023-05-21T07:01:55.232Z,22.96
2023-05-21T07:04:23.566Z,23.10
2023-05-21T07:06:53.684Z,23.73
2023-05-21T07:09:22.101Z,25.11
2023-05-21T07:11:50.403Z,25.93
2023-05-21T07:14:19.138Z,25.35
2023-05-21T07:16:48.272Z,24.85
2023-05-21T07:19:17.128Z,25.87
2023-05-21T07:21:47.554Z,24.44
2023-05-21T07:24:17.249Z,24.26
2023-05-21T07:26:45.607Z,23.74
2023-05-21T07:29:14.050Z,23.05
2023-05-21T07:31:42.454Z,22.93
2023-05-21T07:34:10.838Z,23.38
2023-05-21T07:36:39.311Z,25.11
2023-05-21T07:39:07.896Z,25.28
2023-05-21T07:41:37.655Z,24.60
2023-05-21T07:44:06.315Z,24.43
2023-05-21T07:46:34.919Z,24.63
2023-05-21T07:49:03.275Z,23.84
2023-05-21T07:51:31.795Z,24.06
2023-05-21T07:54:00.248Z,24.40
2023-05-21T07:56:29.574Z,24.23
2023-05-21T07:58:59.289Z,24.61
2023-05-21T08:01:29.689Z,23.32
2023-05-21T08:04:00.924Z,23.59
2023-05-21T08:06:29.441Z,23.84
2023-05-21T08:08:57.830Z,23.08
2023-05-21T08:11:27.267Z,22.57
2023-05-21T08:13:55.648Z,22.75
2023-05-21T08:16:25.656Z,22.50
2023-05-21T08:18:54.104Z,22.81
2023-05-21T08:21:22.861Z,22.65
2023-05-21T08:23:54.107Z,22.17
2023-05-21T08:26:22.447Z,22.33
2023-05-21T08:28:51.456Z,21.89
2023-05-21T08:31:20.095Z,22.36
2023-05-21T08:33:53.678Z,22.65
2023-05-21T08:36:22.793Z,22.60
2023-05-21T08:38:51.104Z,23.19
2023-05-21T08:41:23.131Z,23.52
2023-05-21T08:43:57.145Z,23.24
2023-05-21T08:46:26.103Z,23.35
2023-05-21T08:48:57.198Z,23.83
2023-05-21T08:51:25.630Z,23.51
2023-05-21T08:53:54.611Z,23.44
2023-05-21T08:56:24.859Z,23.84
2023-05-21T08:58:53.700Z,23.71
2023-05-21T09:01:25.734Z,23.96
2023-05-21T09:04:05.090Z,23.75
2023-05-21T09:06:42.109Z,23.87
2023-05-21T09:09:17.458Z,23.69
2023-05-21T09:11:47.603Z,23.46
2023-05-21T09:14:16.935Z,23.41
2023-05-21T09:16:48.455Z,22.55
2023-05-21T09:19:18.337Z,23.14
2023-05-21T09:21:46.664Z,22.84
2023-05-21T09:24:16.302Z,23.31
2023-05-21T09:26:45.306Z,23.45
2023-05-21T09:29:14.871Z,23.12
2023-05-21T09:31:45.265Z,22.93
2023-05-21T09:34:15.291Z,22.44
2023-05-21T09:36:45.093Z,22.92
2023-05-21T09:39:16.681Z,23.38
2023-05-21T09:41:45.086Z,23.33
2023-05-21T09:44:13.733Z,23.22
2023-05-21T09:46:42.599Z,23.69
2023-05-21T09:49:25.030Z,23.06
2023-05-21T09:51:58.328Z,23.01
2023-05-21T09:54:32.101Z,22.74
2023-05-21T09:57:02.566Z,22.44
2023-05-21T09:59:37.889Z,22.86
2023-05-21T10:02:18.315Z,22.68
2023-05-21T10:04:50.274Z,22.78
2023-05-21T10:07:21.818Z,22.48
2023-05-21T10:09:51.145Z,22.77
2023-05-21T10:12:20.954Z,22.60
2023-05-21T10:14:53.577Z,22.16
2023-05-21T10:17:23.438Z,22.44
2023-05-21T10:19:54.127Z,22.25
2023-05-21T10:22:24.602Z,22.55
2023-05-21T10:24:54.077Z,22.35
2023-05-21T10:27:24.034Z,22.56
2023-05-21T10:29:55.200Z,22.15
2023-05-21T10:32:24.352Z,22.33
2023-05-21T10:34:55.146Z,22.19
2023-05-21T10:37:26.790Z,22.43
2023-05-21T10:39:55.820Z,22.76
2023-05-21T10:42:43.970Z,22.57
2023-05-21T10:45:23.622Z,22.74
2023-05-21T10:48:24.529Z,23.07
2023-05-21T10:51:09.352Z,22.71
2023-05-21T10:53:54.905Z,23.06
2023-05-21T10:56:26.695Z,23.00
2023-05-21T10:59:23.226Z,23.68
2023-05-21T11:01:53.243Z,23.81
2023-05-21T11:04:27.553Z,23.30
2023-05-21T11:06:56.449Z,23.61
2023-05-21T11:09:26.279Z,23.28
2023-05-21T11:11:59.345Z,23.39
2023-05-21T11:14:35.284Z,23.56
2023-05-21T11:17:05.063Z,23.35
2023-05-21T11:19:38.312Z,23.06
2023-05-21T11:22:09.228Z,22.68
2023-05-21T11:24:42.699Z,23.16
2023-05-21T11:27:12.591Z,23.11
2023-05-21T11:29:42.804Z,23.03
2023-05-21T11:32:13.100Z,23.11
2023-05-21T11:34:47.507Z,23.48
2023-05-21T11:37:46.190Z,23.03
2023-05-21T11:40:37.024Z,22.99
2023-05-21T11:43:07.037Z,22.92
2023-05-21T11:45:36.556Z,23.10
2023-05-21T11:48:06.335Z,23.13
2023-05-21T11:50:35.993Z,22.73
2023-05-21T11:53:04.777Z,22.43
2023-05-21T11:55:33.258Z,22.45
2023-05-21T11:58:04.227Z,22.08
2023-05-21T12:00:34.306Z,21.93
2023-05-21T12:03:02.921Z,22.02
2023-05-21T12:05:31.473Z,21.84
2023-05-21T12:07:59.841Z,21.83
2023-05-21T12:10:28.158Z,21.79
2023-05-21T12:12:57.516Z,21.54
2023-05-21T12:15:28.686Z,21.38
2023-05-21T12:17:58.022Z,21.39
2023-05-21T12:20:29.173Z,21.00
2023-05-21T12:22:59.410Z,20.82
2023-05-21T12:25:28.629Z,20.75
2023-05-21T12:27:58.771Z,20.80
2023-05-21T12:30:29.590Z,21.05
2023-05-21T12:33:00.567Z,21.13
2023-05-21T12:35:29.072Z,20.87
2023-05-21T12:37:57.882Z,21.19
2023-05-21T12:40:36.706Z,21.57
2023-05-21T12:43:05.559Z,21.73
2023-05-21T12:45:36.795Z,22.20
2023-05-21T12:48:05.490Z,22.57
2023-05-21T12:50:35.859Z,22.50
2023-05-21T12:53:04.546Z,22.72
2023-05-21T12:55:33.089Z,22.76
2023-05-21T12:58:08.297Z,22.43
2023-05-21T13:00:39.003Z,22.36
2023-05-21T13:03:07.684Z,21.83
2023-05-21T13:05:36.110Z,21.84
2023-05-21T13:08:04.587Z,21.55
2023-05-21T13:10:32.960Z,21.32
2023-05-21T13:13:01.853Z,21.41
2023-05-21T13:15:30.412Z,21.50
2023-05-21T13:18:01.593Z,21.48
2023-05-21T13:20:30.304Z,21.58
2023-05-21T13:22:59.040Z,21.63
2023-05-21T13:25:29.841Z,21.60
2023-05-21T13:27:59.266Z,21.65
2023-05-21T13:30:27.596Z,21.82
2023-05-21T13:32:56.584Z,22.19
2023-05-21T13:35:26.472Z,21.87
2023-05-21T13:37:55.086Z,21.53
2023-05-21T13:40:23.916Z,21.46
2023-05-21T13:42:52.452Z,21.19
2023-05-21T13:45:24.447Z,20.86
2023-05-21T13:47:52.939Z,21.04
2023-05-21T13:50:21.263Z,21.11
2023-05-21T13:52:51.020Z,21.14
2023-05-21T13:55:19.282Z,21.37
2023-05-21T13:57:47.724Z,21.70
2023-05-21T14:00:16.736Z,21.68
2023-05-21T14:02:45.997Z,21.59
2023-05-21T14:05:14.824Z,21.35
2023-05-21T14:07:43.696Z,21.41
2023-05-21T14:10:13.542Z,21.42
2023-05-21T14:12:42.199Z,21.30
2023-05-21T14:15:12.111Z,21.56
2023-05-21T14:17:42.520Z,21.43
2023-05-21T14:20:11.668Z,21.01
2023-05-21T14:22:40.576Z,20.85
2023-05-21T14:25:09.844Z,20.79
2023-05-21T14:27:39.580Z,20.70
2023-05-21T14:30:09.934Z,20.61
2023-05-21T14:32:38.327Z,20.78
2023-05-21T14:35:07.446Z,20.73
2023-05-21T14:37:35.882Z,20.61
2023-05-21T14:40:05.603Z,20.56
2023-05-21T14:42:34.059Z,20.65
2023-05-21T14:45:18.059Z,20.75
2023-05-21T14:47:48.951Z,20.83
2023-05-21T14:50:18.533Z,20.70
2023-05-21T14:52:47.565Z,20.58
2023-05-21T14:55:16.978Z,20.38
2023-05-21T14:57:45.577Z,20.39
2023-05-21T15:00:17.223Z,20.39
2023-05-21T15:02:45.618Z,20.38
2023-05-21T15:05:14.191Z,20.48
2023-05-21T15:07:42.459Z,20.63
2023-05-21T15:10:11.612Z,20.61
2023-05-21T15:12:41.064Z,20.63
2023-05-21T15:15:10.635Z,20.81
2023-05-21T15:17:40.588Z,20.71
2023-05-21T15:20:09.844Z,20.61
2023-05-21T15:22:38.631Z,20.68
2023-05-21T15:25:07.725Z,20.60
2023-05-21T15:27:36.153Z,20.56
2023-05-21T15:30:04.860Z,20.63
2023-05-21T15:32:33.222Z,20.50
2023-05-21T15:35:03.283Z,20.56
2023-05-21T15:37:33.214Z,20.51
2023-05-21T15:40:03.174Z,20.33
2023-05-21T15:42:31.972Z,20.30
2023-05-21T15:45:00.592Z,20.28
2023-05-21T15:47:29.007Z,20.24
2023-05-21T15:49:58.916Z,20.25
2023-05-21T15:52:28.755Z,20.12
2023-05-21T15:54:57.143Z,20.11
2023-05-21T15:57:25.417Z,19.97
2023-05-21T15:59:53.788Z,19.99
2023-05-21T16:02:22.108Z,19.90
2023-05-21T16:04:52.251Z,20.06
2023-05-21T16:07:21.239Z,20.10
2023-05-21T16:09:50.947Z,20.12
2023-05-21T16:12:19.348Z,20.07
2023-05-21T16:14:49.990Z,19.96
2023-05-21T16:17:18.394Z,19.96
2023-05-21T16:19:47.763Z,19.99
2023-05-21T16:22:16.278Z,19.92
2023-05-21T16:24:44.608Z,19.87
2023-05-21T16:27:14.544Z,19.93
2023-05-21T16:29:43.106Z,19.97
2023-05-21T16:32:13.975Z,19.97
2023-05-21T16:34:42.596Z,19.89
2023-05-21T16:37:11.224Z,19.86
2023-05-21T16:39:39.634Z,19.78
2023-05-21T16:42:08.031Z,19.79
2023-05-21T16:44:39.374Z,19.63
2023-05-21T16:47:08.570Z,19.52
2023-05-21T16:49:37.096Z,19.45
2023-05-21T16:52:05.678Z,19.33
2023-05-21T16:54:35.070Z,19.23
2023-05-21T16:57:03.488Z,19.41
2023-05-21T16:59:31.802Z,19.34
2023-05-21T17:02:01.786Z,19.21
2023-05-21T17:04:30.612Z,19.12
2023-05-21T17:06:58.946Z,19.04
2023-05-21T17:09:27.265Z,18.90
2023-05-21T17:11:55.629Z,18.86
2023-05-21T17:14:33.909Z,18.84
2023-05-21T17:17:04.706Z,18.63
2023-05-21T17:19:33.084Z,18.55
2023-05-21T17:22:01.758Z,18.54
2023-05-21T17:24:30.244Z,18.42
2023-05-21T17:26:58.614Z,18.36
2023-05-21T17:29:27.056Z,18.37
2023-05-21T17:31:55.636Z,18.27
2023-05-21T17:34:29.700Z,18.28
2023-05-21T17:36:59.225Z,18.40
2023-05-21T17:39:27.487Z,18.27
2023-05-21T17:41:57.399Z,18.26
2023-05-21T17:44:25.753Z,18.15
2023-05-21T17:46:54.228Z,18.07
2023-05-21T17:49:22.832Z,18.06
2023-05-21T17:51:52.669Z,18.15
2023-05-21T17:54:21.443Z,18.11
2023-05-21T17:56:49.787Z,18.08
2023-05-21T17:59:18.249Z,18.16
2023-05-21T18:01:46.515Z,17.99
2023-05-21T18:04:14.868Z,17.95
2023-05-21T18:06:44.295Z,17.84
2023-05-21T18:09:15.611Z,17.68
2023-05-21T18:11:44.945Z,17.59
2023-05-21T18:14:13.347Z,17.52
2023-05-21T18:16:42.102Z,17.58
2023-05-21T18:19:10.465Z,17.57
2023-05-21T18:21:39.321Z,17.50
2023-05-21T18:24:08.399Z,17.57
2023-05-21T18:26:38.198Z,17.59
2023-05-21T18:29:06.672Z,17.57
2023-05-21T18:31:35.076Z,17.57
2023-05-21T18:34:03.419Z,17.46
2023-05-21T18:36:38.642Z,17.59
2023-05-21T18:39:07.784Z,17.60
2023-05-21T18:41:37.739Z,17.54
2023-05-21T18:44:06.504Z,17.52
2023-05-21T18:46:35.016Z,17.60
2023-05-21T18:49:03.445Z,17.64
2023-05-21T18:51:31.781Z,17.61
2023-05-21T18:54:00.040Z,17.59
2023-05-21T18:56:28.584Z,17.64
2023-05-21T18:58:58.509Z,17.56
2023-05-21T19:01:27.024Z,17.59
2023-05-21T19:03:55.403Z,17.61
2023-05-21T19:06:25.727Z,17.65
2023-05-21T19:08:54.032Z,17.66
2023-05-21T19:11:23.634Z,17.69
2023-05-21T19:13:52.186Z,17.65
2023-05-21T19:16:21.909Z,17.73
2023-05-21T19:18:50.495Z,17.75
2023-05-21T19:21:19.169Z,17.78
2023-05-21T19:23:53.369Z,17.84
2023-05-21T19:26:23.541Z,17.86
2023-05-21T19:28:53.819Z,17.84
2023-05-21T19:31:25.409Z,17.73
2023-05-21T19:33:54.328Z,17.70
2023-05-21T19:36:23.276Z,17.76
2023-05-21T19:38:52.176Z,17.64
2023-05-21T19:41:21.670Z,17.70
2023-05-21T19:43:50.051Z,17.76
2023-05-21T19:46:20.492Z,17.71
2023-05-21T19:48:52.702Z,17.74
2023-05-21T19:51:21.103Z,17.75
2023-05-21T19:53:49.516Z,17.77
2023-05-21T19:56:18.108Z,17.77
2023-05-21T19:58:48.128Z,17.83
2023-05-21T20:01:18.016Z,17.86
2023-05-21T20:03:46.654Z,17.88
2023-05-21T20:06:19.172Z,17.86
2023-05-21T20:08:47.843Z,17.77
2023-05-21T20:11:16.271Z,17.71
2023-05-21T20:13:48.592Z,17.77
2023-05-21T20:16:18.441Z,17.66
2023-05-21T20:18:47.430Z,17.71
2023-05-21T20:21:18.602Z,17.78
2023-05-21T20:23:47.279Z,17.73
2023-05-21T20:26:16.289Z,17.69
2023-05-21T20:28:44.783Z,17.68
2023-05-21T20:31:13.466Z,17.69
2023-05-21T20:33:42.100Z,17.70
2023-05-21T20:36:11.215Z,17.75
2023-05-21T20:38:42.241Z,17.72
2023-05-21T20:41:10.689Z,17.66
2023-05-21T20:43:39.216Z,17.64
2023-05-21T20:46:07.976Z,17.64
2023-05-21T20:48:37.866Z,17.61
2023-05-21T20:51:06.930Z,17.63
2023-05-21T20:53:35.265Z,17.52
2023-05-21T20:56:08.652Z,17.52
2023-05-21T20:58:36.962Z,17.62
2023-05-21T21:01:05.274Z,17.52
2023-05-21T21:03:35.264Z,17.48
2023-05-21T21:06:04.465Z,17.51
2023-05-21T21:08:34.740Z,17.41
2023-05-21T21:11:04.586Z,17.50
2023-05-21T21:13:33.041Z,17.46
2023-05-21T21:16:01.418Z,17.50
2023-05-21T21:18:29.781Z,17.52
2023-05-21T21:20:58.362Z,17.52
2023-05-21T21:23:29.210Z,17.52
2023-05-21T21:25:57.685Z,17.51
2023-05-21T21:28:27.616Z,17.54
2023-05-21T21:30:55.948Z,17.57
2023-05-21T21:33:26.741Z,17.48
2023-05-21T21:35:55.291Z,17.44
2023-05-21T21:38:23.773Z,17.40
2023-05-21T21:40:52.084Z,17.31
2023-05-21T21:43:20.391Z,17.29
2023-05-21T21:45:50.176Z,17.31
2023-05-21T21:48:18.578Z,17.18
2023-05-21T21:50:47.344Z,17.17
2023-05-21T21:53:15.730Z,17.12
2023-05-21T21:55:44.074Z,17.04
2023-05-21T21:58:12.790Z,17.09
2023-05-21T22:00:41.850Z,17.00
2023-05-21T22:03:14.447Z,16.98
2023-05-21T22:05:43.143Z,16.95
2023-05-21T22:08:11.749Z,16.99
2023-05-21T22:10:40.512Z,16.88
2023-05-21T22:13:09.273Z,16.86
2023-05-21T22:15:37.770Z,16.77
2023-05-21T22:18:06.505Z,16.73
2023-05-21T22:20:38.472Z,16.72
2023-05-21T22:23:07.457Z,16.65
2023-05-21T22:25:36.188Z,16.66
2023-05-21T22:28:04.621Z,16.70
2023-05-21T22:30:32.980Z,16.72
2023-05-21T22:33:01.766Z,16.66
2023-05-21T22:35:30.083Z,16.60
2023-05-21T22:37:59.923Z,16.59
2023-05-21T22:40:28.398Z,16.52
2023-05-21T22:42:57.095Z,16.50
2023-05-21T22:45:26.526Z,16.44
2023-05-21T22:47:56.831Z,16.43
2023-05-21T22:50:29.211Z,16.51
2023-05-21T22:52:57.710Z,16.45
2023-05-21T22:55:27.480Z,16.39
2023-05-21T22:57:55.945Z,16.36
2023-05-21T23:00:24.645Z,16.37
2023-05-21T23:02:54.535Z,16.35
2023-05-21T23:05:23.485Z,16.29
2023-05-21T23:07:52.075Z,16.26
2023-05-21T23:10:20.611Z,16.21
2023-05-21T23:12:50.411Z,16.29
2023-05-21T23:15:19.128Z,16.16
2023-05-21T23:17:47.657Z,16.08
2023-05-21T23:20:16.449Z,15.99
2023-05-21T23:22:44.757Z,16.01
2023-05-21T23:25:13.017Z,16.08
2023-05-21T23:27:41.558Z,16.11
2023-05-21T23:30:12.714Z,16.05
2023-05-21T23:32:41.095Z,16.06
2023-05-21T23:35:10.547Z,16.09
2023-05-21T23:37:39.117Z,15.91
2023-05-21T23:40:09.424Z,15.85
2023-05-21T23:42:37.844Z,15.85
2023-05-21T23:45:06.841Z,15.81
2023-05-21T23:47:36.633Z,15.80
2023-05-21T23:50:05.513Z,15.79
2023-05-21T23:52:33.876Z,15.73
2023-05-21T23:55:02.274Z,15.71
2023-05-21T23:57:30.667Z,15.72
2023-05-21T23:59:59.022Z,15.73
